sensor_id;sensor_type;location;lat;lon;timestamp;P1;durP1;ratioP1;P2;durP2;ratioP2
19731;SDS011;10017;54.350;18.532;2022-08-19T00:00:07;17.42;;;12.70;;
19731;SDS011;10017;54.350;18.532;2022-08-19T00:02:41;15.90;;;12.70;;
19731;SDS011;10017;54.350;18.532;2022-08-19T00:05:21;15.95;;;13.60;;
19731;SDS011;10017;54.350;18.532;2022-08-19T00:07:55;14.10;;;12.60;;
19731;SDS011;10017;54.350;18.532;2022-08-19T00:10:27;14.68;;;12.77;;
19731;SDS011;10017;54.350;18.532;2022-08-19T00:12:59;14.63;;;12.93;;
19731;SDS011;10017;54.350;18.532;2022-08-19T00:15:31;14.38;;;12.18;;
19731;SDS011;10017;54.350;18.532;2022-08-19T00:18:03;15.93;;;13.02;;
19731;SDS011;10017;54.350;18.532;2022-08-19T00:20:35;16.23;;;12.95;;
19731;SDS011;10017;54.350;18.532;2022-08-19T00:23:11;14.48;;;12.98;;
19731;SDS011;10017;54.350;18.532;2022-08-19T00:25:43;14.82;;;13.30;;
19731;SDS011;10017;54.350;18.532;2022-08-19T00:28:19;16.80;;;13.90;;
19731;SDS011;10017;54.350;18.532;2022-08-19T00:30:51;15.80;;;13.93;;
19731;SDS011;10017;54.350;18.532;2022-08-19T00:33:24;16.65;;;14.18;;
19731;SDS011;10017;54.350;18.532;2022-08-19T00:36:02;17.17;;;14.38;;
19731;SDS011;10017;54.350;18.532;2022-08-19T00:38:38;16.90;;;15.15;;
19731;SDS011;10017;54.350;18.532;2022-08-19T00:41:17;16.05;;;13.90;;
19731;SDS011;10017;54.350;18.532;2022-08-19T00:44:03;17.13;;;14.38;;
19731;SDS011;10017;54.350;18.532;2022-08-19T00:46:39;15.55;;;13.73;;
19731;SDS011;10017;54.350;18.532;2022-08-19T00:49:15;16.10;;;14.13;;
19731;SDS011;10017;54.350;18.532;2022-08-19T00:54:37;16.80;;;14.02;;
19731;SDS011;10017;54.350;18.532;2022-08-19T00:57:11;15.82;;;13.65;;
19731;SDS011;10017;54.350;18.532;2022-08-19T00:59:47;15.50;;;13.85;;
19731;SDS011;10017;54.350;18.532;2022-08-19T01:02:33;15.43;;;13.93;;
19731;SDS011;10017;54.350;18.532;2022-08-19T01:05:06;15.63;;;14.02;;
19731;SDS011;10017;54.350;18.532;2022-08-19T01:07:41;15.85;;;13.95;;
19731;SDS011;10017;54.350;18.532;2022-08-19T01:10:19;16.77;;;14.60;;
19731;SDS011;10017;54.350;18.532;2022-08-19T01:12:54;19.27;;;14.32;;
19731;SDS011;10017;54.350;18.532;2022-08-19T01:15:30;16.35;;;14.35;;
19731;SDS011;10017;54.350;18.532;2022-08-19T01:18:06;14.63;;;13.20;;
19731;SDS011;10017;54.350;18.532;2022-08-19T01:20:41;14.93;;;13.43;;
19731;SDS011;10017;54.350;18.532;2022-08-19T01:23:14;14.68;;;13.02;;
19731;SDS011;10017;54.350;18.532;2022-08-19T01:25:51;16.02;;;14.23;;
19731;SDS011;10017;54.350;18.532;2022-08-19T01:28:26;16.08;;;14.05;;
19731;SDS011;10017;54.350;18.532;2022-08-19T01:31:12;16.80;;;13.13;;
19731;SDS011;10017;54.350;18.532;2022-08-19T01:33:57;16.52;;;13.95;;
19731;SDS011;10017;54.350;18.532;2022-08-19T01:36:32;14.88;;;13.20;;
19731;SDS011;10017;54.350;18.532;2022-08-19T01:39:07;15.52;;;13.45;;
19731;SDS011;10017;54.350;18.532;2022-08-19T01:41:41;16.38;;;13.65;;
19731;SDS011;10017;54.350;18.532;2022-08-19T01:44:14;15.38;;;13.82;;
19731;SDS011;10017;54.350;18.532;2022-08-19T01:46:50;15.40;;;13.75;;
19731;SDS011;10017;54.350;18.532;2022-08-19T01:49:23;14.35;;;12.85;;
19731;SDS011;10017;54.350;18.532;2022-08-19T01:52:00;15.85;;;13.25;;
19731;SDS011;10017;54.350;18.532;2022-08-19T01:54:32;15.48;;;13.57;;
19731;SDS011;10017;54.350;18.532;2022-08-19T01:57:05;16.98;;;13.75;;
19731;SDS011;10017;54.350;18.532;2022-08-19T01:59:40;16.50;;;13.82;;
19731;SDS011;10017;54.350;18.532;2022-08-19T02:02:16;15.65;;;14.05;;
19731;SDS011;10017;54.350;18.532;2022-08-19T02:04:48;15.55;;;13.07;;
19731;SDS011;10017;54.350;18.532;2022-08-19T02:07:20;15.18;;;13.57;;
19731;SDS011;10017;54.350;18.532;2022-08-19T02:09:52;15.85;;;13.43;;
19731;SDS011;10017;54.350;18.532;2022-08-19T02:12:26;14.98;;;12.25;;
19731;SDS011;10017;54.350;18.532;2022-08-19T02:14:58;14.07;;;12.50;;
19731;SDS011;10017;54.350;18.532;2022-08-19T02:17:31;15.25;;;12.75;;
19731;SDS011;10017;54.350;18.532;2022-08-19T02:20:03;14.55;;;13.05;;
19731;SDS011;10017;54.350;18.532;2022-08-19T02:22:37;14.60;;;13.18;;
19731;SDS011;10017;54.350;18.532;2022-08-19T02:25:10;15.05;;;12.82;;
19731;SDS011;10017;54.350;18.532;2022-08-19T02:27:43;14.00;;;12.43;;
19731;SDS011;10017;54.350;18.532;2022-08-19T02:30:16;14.10;;;12.60;;
19731;SDS011;10017;54.350;18.532;2022-08-19T02:32:48;14.73;;;13.13;;
19731;SDS011;10017;54.350;18.532;2022-08-19T02:35:20;15.27;;;13.50;;
19731;SDS011;10017;54.350;18.532;2022-08-19T02:37:55;15.15;;;13.55;;
19731;SDS011;10017;54.350;18.532;2022-08-19T02:40:49;14.82;;;13.27;;
19731;SDS011;10017;54.350;18.532;2022-08-19T02:43:23;14.45;;;13.05;;
19731;SDS011;10017;54.350;18.532;2022-08-19T02:46:10;14.93;;;13.32;;
19731;SDS011;10017;54.350;18.532;2022-08-19T02:48:52;15.07;;;13.57;;
19731;SDS011;10017;54.350;18.532;2022-08-19T02:51:28;15.18;;;13.50;;
19731;SDS011;10017;54.350;18.532;2022-08-19T02:54:18;16.08;;;13.90;;
19731;SDS011;10017;54.350;18.532;2022-08-19T02:56:50;14.48;;;12.85;;
19731;SDS011;10017;54.350;18.532;2022-08-19T02:59:22;14.13;;;12.60;;
19731;SDS011;10017;54.350;18.532;2022-08-19T03:01:54;14.68;;;13.15;;
19731;SDS011;10017;54.350;18.532;2022-08-19T03:04:26;16.13;;;12.82;;
19731;SDS011;10017;54.350;18.532;2022-08-19T03:06:58;14.60;;;13.10;;
19731;SDS011;10017;54.350;18.532;2022-08-19T03:09:41;15.25;;;13.65;;
19731;SDS011;10017;54.350;18.532;2022-08-19T03:12:13;16.83;;;14.75;;
19731;SDS011;10017;54.350;18.532;2022-08-19T03:14:47;17.75;;;15.10;;
19731;SDS011;10017;54.350;18.532;2022-08-19T03:17:19;16.48;;;13.85;;
19731;SDS011;10017;54.350;18.532;2022-08-19T03:19:54;17.33;;;15.48;;
19731;SDS011;10017;54.350;18.532;2022-08-19T03:22:26;16.33;;;14.63;;
19731;SDS011;10017;54.350;18.532;2022-08-19T03:25:03;17.80;;;14.57;;
19731;SDS011;10017;54.350;18.532;2022-08-19T03:27:35;15.43;;;13.82;;
19731;SDS011;10017;54.350;18.532;2022-08-19T03:30:07;16.58;;;14.32;;
19731;SDS011;10017;54.350;18.532;2022-08-19T03:32:41;15.68;;;13.48;;
19731;SDS011;10017;54.350;18.532;2022-08-19T03:35:15;14.68;;;13.15;;
19731;SDS011;10017;54.350;18.532;2022-08-19T03:37:48;16.55;;;14.85;;
19731;SDS011;10017;54.350;18.532;2022-08-19T03:40:20;15.98;;;13.02;;
19731;SDS011;10017;54.350;18.532;2022-08-19T03:42:54;17.55;;;13.70;;
19731;SDS011;10017;54.350;18.532;2022-08-19T03:45:28;20.80;;;14.80;;
19731;SDS011;10017;54.350;18.532;2022-08-19T03:48:00;16.00;;;14.40;;
19731;SDS011;10017;54.350;18.532;2022-08-19T03:50:32;15.43;;;13.82;;
19731;SDS011;10017;54.350;18.532;2022-08-19T03:53:04;18.90;;;14.35;;
19731;SDS011;10017;54.350;18.532;2022-08-19T03:55:40;15.65;;;13.27;;
19731;SDS011;10017;54.350;18.532;2022-08-19T03:58:12;14.07;;;12.77;;
19731;SDS011;10017;54.350;18.532;2022-08-19T04:00:44;16.45;;;13.90;;
19731;SDS011;10017;54.350;18.532;2022-08-19T04:03:19;20.42;;;15.77;;
19731;SDS011;10017;54.350;18.532;2022-08-19T04:05:51;17.75;;;15.48;;
19731;SDS011;10017;54.350;18.532;2022-08-19T04:08:23;15.77;;;14.02;;
19731;SDS011;10017;54.350;18.532;2022-08-19T04:10:54;15.57;;;13.85;;
19731;SDS011;10017;54.350;18.532;2022-08-19T04:13:29;14.07;;;12.68;;
19731;SDS011;10017;54.350;18.532;2022-08-19T04:16:01;18.50;;;16.60;;
19731;SDS011;10017;54.350;18.532;2022-08-19T04:18:33;22.35;;;16.10;;
19731;SDS011;10017;54.350;18.532;2022-08-19T04:21:07;19.52;;;17.27;;
19731;SDS011;10017;54.350;18.532;2022-08-19T04:23:41;18.98;;;14.88;;
19731;SDS011;10017;54.350;18.532;2022-08-19T04:26:20;15.95;;;13.85;;
19731;SDS011;10017;54.350;18.532;2022-08-19T04:28:55;14.57;;;13.07;;
19731;SDS011;10017;54.350;18.532;2022-08-19T04:31:30;13.60;;;12.18;;
19731;SDS011;10017;54.350;18.532;2022-08-19T04:34:04;14.95;;;13.45;;
19731;SDS011;10017;54.350;18.532;2022-08-19T04:36:38;18.05;;;15.13;;
19731;SDS011;10017;54.350;18.532;2022-08-19T04:39:16;16.10;;;14.40;;
19731;SDS011;10017;54.350;18.532;2022-08-19T04:41:50;19.70;;;15.70;;
19731;SDS011;10017;54.350;18.532;2022-08-19T04:44:43;16.27;;;14.23;;
19731;SDS011;10017;54.350;18.532;2022-08-19T04:47:16;21.98;;;16.30;;
19731;SDS011;10017;54.350;18.532;2022-08-19T04:50:08;18.88;;;15.80;;
19731;SDS011;10017;54.350;18.532;2022-08-19T04:52:42;17.00;;;14.65;;
19731;SDS011;10017;54.350;18.532;2022-08-19T04:55:14;19.75;;;16.67;;
19731;SDS011;10017;54.350;18.532;2022-08-19T04:57:49;20.45;;;16.67;;
19731;SDS011;10017;54.350;18.532;2022-08-19T05:00:22;19.95;;;15.73;;
19731;SDS011;10017;54.350;18.532;2022-08-19T05:02:54;21.20;;;15.60;;
19731;SDS011;10017;54.350;18.532;2022-08-19T05:05:28;21.80;;;16.17;;
19731;SDS011;10017;54.350;18.532;2022-08-19T05:08:16;19.70;;;15.10;;
19731;SDS011;10017;54.350;18.532;2022-08-19T05:11:06;21.25;;;15.10;;
19731;SDS011;10017;54.350;18.532;2022-08-19T05:13:44;19.25;;;15.35;;
19731;SDS011;10017;54.350;18.532;2022-08-19T05:16:18;19.88;;;14.93;;
19731;SDS011;10017;54.350;18.532;2022-08-19T05:18:51;19.08;;;14.85;;
19731;SDS011;10017;54.350;18.532;2022-08-19T05:21:43;18.25;;;13.32;;
19731;SDS011;10017;54.350;18.532;2022-08-19T05:24:34;18.27;;;13.77;;
19731;SDS011;10017;54.350;18.532;2022-08-19T05:27:26;19.45;;;13.90;;
19731;SDS011;10017;54.350;18.532;2022-08-19T05:29:58;14.85;;;12.95;;
19731;SDS011;10017;54.350;18.532;2022-08-19T05:32:31;17.98;;;13.75;;
19731;SDS011;10017;54.350;18.532;2022-08-19T05:35:03;23.98;;;14.63;;
19731;SDS011;10017;54.350;18.532;2022-08-19T05:37:36;17.65;;;13.27;;
19731;SDS011;10017;54.350;18.532;2022-08-19T05:40:08;19.38;;;13.60;;
19731;SDS011;10017;54.350;18.532;2022-08-19T05:42:43;15.82;;;13.13;;
19731;SDS011;10017;54.350;18.532;2022-08-19T05:45:27;16.67;;;12.55;;
19731;SDS011;10017;54.350;18.532;2022-08-19T05:47:59;15.40;;;11.90;;
19731;SDS011;10017;54.350;18.532;2022-08-19T05:50:35;18.15;;;13.15;;
19731;SDS011;10017;54.350;18.532;2022-08-19T05:53:09;18.00;;;12.73;;
19731;SDS011;10017;54.350;18.532;2022-08-19T05:55:41;28.67;;;13.93;;
19731;SDS011;10017;54.350;18.532;2022-08-19T05:58:13;18.55;;;12.38;;
19731;SDS011;10017;54.350;18.532;2022-08-19T06:00:45;16.45;;;12.57;;
19731;SDS011;10017;54.350;18.532;2022-08-19T06:03:17;16.52;;;12.30;;
19731;SDS011;10017;54.350;18.532;2022-08-19T06:05:49;14.23;;;12.20;;
19731;SDS011;10017;54.350;18.532;2022-08-19T06:08:25;19.80;;;12.55;;
19731;SDS011;10017;54.350;18.532;2022-08-19T06:13:54;15.57;;;11.57;;
19731;SDS011;10017;54.350;18.532;2022-08-19T06:16:30;23.10;;;11.93;;
19731;SDS011;10017;54.350;18.532;2022-08-19T06:19:07;14.80;;;10.68;;
19731;SDS011;10017;54.350;18.532;2022-08-19T06:21:41;16.58;;;11.52;;
19731;SDS011;10017;54.350;18.532;2022-08-19T06:24:18;16.92;;;12.68;;
19731;SDS011;10017;54.350;18.532;2022-08-19T06:26:55;16.73;;;11.13;;
19731;SDS011;10017;54.350;18.532;2022-08-19T06:29:32;14.13;;;11.27;;
19731;SDS011;10017;54.350;18.532;2022-08-19T06:32:04;14.93;;;11.32;;
19731;SDS011;10017;54.350;18.532;2022-08-19T06:34:36;18.15;;;10.55;;
19731;SDS011;10017;54.350;18.532;2022-08-19T06:37:09;14.05;;;8.90;;
19731;SDS011;10017;54.350;18.532;2022-08-19T06:39:43;13.55;;;8.43;;
19731;SDS011;10017;54.350;18.532;2022-08-19T06:42:16;13.45;;;8.73;;
19731;SDS011;10017;54.350;18.532;2022-08-19T06:44:55;13.02;;;8.80;;
19731;SDS011;10017;54.350;18.532;2022-08-19T06:47:29;11.80;;;7.95;;
19731;SDS011;10017;54.350;18.532;2022-08-19T06:50:03;11.85;;;8.20;;
19731;SDS011;10017;54.350;18.532;2022-08-19T06:52:38;14.43;;;7.95;;
19731;SDS011;10017;54.350;18.532;2022-08-19T06:55:11;14.15;;;7.25;;
19731;SDS011;10017;54.350;18.532;2022-08-19T06:57:43;10.05;;;7.38;;
19731;SDS011;10017;54.350;18.532;2022-08-19T07:00:17;13.95;;;7.50;;
19731;SDS011;10017;54.350;18.532;2022-08-19T07:02:51;12.63;;;8.27;;
19731;SDS011;10017;54.350;18.532;2022-08-19T07:05:33;11.98;;;6.90;;
19731;SDS011;10017;54.350;18.532;2022-08-19T07:08:15;8.50;;;7.57;;
19731;SDS011;10017;54.350;18.532;2022-08-19T07:10:48;9.00;;;6.47;;
19731;SDS011;10017;54.350;18.532;2022-08-19T07:13:20;8.32;;;7.43;;
19731;SDS011;10017;54.350;18.532;2022-08-19T07:15:53;9.27;;;7.43;;
19731;SDS011;10017;54.350;18.532;2022-08-19T07:18:27;17.08;;;8.10;;
19731;SDS011;10017;54.350;18.532;2022-08-19T07:21:05;10.07;;;6.63;;
19731;SDS011;10017;54.350;18.532;2022-08-19T07:23:41;11.70;;;7.00;;
19731;SDS011;10017;54.350;18.532;2022-08-19T07:26:17;10.68;;;6.60;;
19731;SDS011;10017;54.350;18.532;2022-08-19T07:28:59;12.50;;;8.20;;
19731;SDS011;10017;54.350;18.532;2022-08-19T07:31:34;9.88;;;7.40;;
19731;SDS011;10017;54.350;18.532;2022-08-19T07:34:09;12.35;;;8.02;;
19731;SDS011;10017;54.350;18.532;2022-08-19T07:36:45;8.75;;;7.20;;
19731;SDS011;10017;54.350;18.532;2022-08-19T07:39:19;8.82;;;7.70;;
19731;SDS011;10017;54.350;18.532;2022-08-19T07:41:56;11.65;;;8.43;;
19731;SDS011;10017;54.350;18.532;2022-08-19T07:44:29;11.60;;;8.07;;
19731;SDS011;10017;54.350;18.532;2022-08-19T07:47:01;11.80;;;8.20;;
19731;SDS011;10017;54.350;18.532;2022-08-19T07:49:35;14.45;;;8.55;;
19731;SDS011;10017;54.350;18.532;2022-08-19T07:52:08;13.18;;;8.20;;
19731;SDS011;10017;54.350;18.532;2022-08-19T07:54:41;10.43;;;8.65;;
19731;SDS011;10017;54.350;18.532;2022-08-19T07:57:12;13.32;;;9.00;;
19731;SDS011;10017;54.350;18.532;2022-08-19T07:59:44;12.70;;;8.80;;
19731;SDS011;10017;54.350;18.532;2022-08-19T08:02:16;10.68;;;8.85;;
19731;SDS011;10017;54.350;18.532;2022-08-19T08:04:48;11.90;;;8.77;;
19731;SDS011;10017;54.350;18.532;2022-08-19T08:07:39;13.07;;;8.90;;
19731;SDS011;10017;54.350;18.532;2022-08-19T08:10:30;9.88;;;8.88;;
19731;SDS011;10017;54.350;18.532;2022-08-19T08:13:02;13.68;;;9.00;;
19731;SDS011;10017;54.350;18.532;2022-08-19T08:15:40;20.42;;;9.52;;
19731;SDS011;10017;54.350;18.532;2022-08-19T08:18:13;14.68;;;9.20;;
19731;SDS011;10017;54.350;18.532;2022-08-19T08:20:45;16.05;;;10.35;;
19731;SDS011;10017;54.350;18.532;2022-08-19T08:23:17;13.05;;;8.68;;
19731;SDS011;10017;54.350;18.532;2022-08-19T08:26:00;15.13;;;9.80;;
19731;SDS011;10017;54.350;18.532;2022-08-19T08:28:33;12.45;;;9.88;;
19731;SDS011;10017;54.350;18.532;2022-08-19T08:31:05;12.95;;;9.13;;
19731;SDS011;10017;54.350;18.532;2022-08-19T08:33:39;13.77;;;8.68;;
19731;SDS011;10017;54.350;18.532;2022-08-19T08:36:13;17.15;;;8.60;;
19731;SDS011;10017;54.350;18.532;2022-08-19T08:38:51;12.23;;;8.82;;
19731;SDS011;10017;54.350;18.532;2022-08-19T08:47:30;13.27;;;8.68;;
19731;SDS011;10017;54.350;18.532;2022-08-19T08:50:13;16.92;;;8.27;;
19731;SDS011;10017;54.350;18.532;2022-08-19T08:52:51;11.60;;;7.57;;
19731;SDS011;10017;54.350;18.532;2022-08-19T08:55:27;10.70;;;7.68;;
19731;SDS011;10017;54.350;18.532;2022-08-19T08:58:09;11.93;;;7.88;;
19731;SDS011;10017;54.350;18.532;2022-08-19T09:00:55;18.60;;;8.65;;
19731;SDS011;10017;54.350;18.532;2022-08-19T09:03:29;10.30;;;7.95;;
19731;SDS011;10017;54.350;18.532;2022-08-19T09:08:58;14.57;;;7.30;;
19731;SDS011;10017;54.350;18.532;2022-08-19T09:14:45;11.65;;;7.00;;
19731;SDS011;10017;54.350;18.532;2022-08-19T09:17:24;12.95;;;7.00;;
19731;SDS011;10017;54.350;18.532;2022-08-19T09:22:42;12.98;;;8.40;;
19731;SDS011;10017;54.350;18.532;2022-08-19T09:25:19;11.07;;;7.47;;
19731;SDS011;10017;54.350;18.532;2022-08-19T09:27:59;11.85;;;7.55;;
19731;SDS011;10017;54.350;18.532;2022-08-19T09:30:52;12.73;;;7.00;;
